Aviation Digital Data Service (ADDS)

Output produced by TAFs form (1250 UTC 19 October 2017)
found at http://www.aviationweather.gov/adds/tafs/
 
KTYS 191153Z 00000KT 10SM SCT250 06/06 A3032 RMK AO2 SLP265 T00610061 10106 20050 53015 $
KTYS 191125Z 1912/2012 VRB03KT P6SM FEW250